131  
SXUS55 KMSO 230313  
OSOMSO  
MONTANA AWOS SUMMARY  
NATIONAL WEATHER SERVICE MISSOULA MT  
913 PM MDT FRI SEP 22 2017  
 
MONTANA AWOS REPORTS  
 
ROUNDUP |KRPX 230255Z AUTO 04004KT 40SM 04/02 A2998 RMK AO1 T00440022  
 
CLICK HERE TO GO TO PREVIOUS BULLETINS.

The Nexlab MT Page
The Nexlab ID Page Main Text Page